sensor_id;sensor_type;location;lat;lon;timestamp;P1;durP1;ratioP1;P2;durP2;ratioP2
14858;SDS011;7521;51.700;6.874;2022-11-04T00:02:12;3.70;;;2.13;;
14858;SDS011;7521;51.700;6.874;2022-11-04T00:05:17;3.38;;;2.65;;
14858;SDS011;7521;51.700;6.874;2022-11-04T00:08:22;3.03;;;2.47;;
14858;SDS011;7521;51.700;6.874;2022-11-04T00:11:28;3.45;;;2.60;;
14858;SDS011;7521;51.700;6.874;2022-11-04T00:14:51;3.07;;;2.50;;
14858;SDS011;7521;51.700;6.874;2022-11-04T00:17:57;4.00;;;2.33;;
14858;SDS011;7521;51.700;6.874;2022-11-04T00:21:02;4.22;;;2.60;;
14858;SDS011;7521;51.700;6.874;2022-11-04T00:24:26;3.03;;;2.00;;
14858;SDS011;7521;51.700;6.874;2022-11-04T00:27:46;3.23;;;2.30;;
14858;SDS011;7521;51.700;6.874;2022-11-04T00:31:10;4.77;;;2.63;;
14858;SDS011;7521;51.700;6.874;2022-11-04T00:34:34;3.73;;;2.43;;
14858;SDS011;7521;51.700;6.874;2022-11-04T00:37:40;5.03;;;2.80;;
14858;SDS011;7521;51.700;6.874;2022-11-04T00:40:45;3.40;;;2.70;;
14858;SDS011;7521;51.700;6.874;2022-11-04T00:43:51;3.45;;;2.72;;
14858;SDS011;7521;51.700;6.874;2022-11-04T00:46:57;3.40;;;2.90;;
14858;SDS011;7521;51.700;6.874;2022-11-04T00:50:02;3.17;;;2.47;;
14858;SDS011;7521;51.700;6.874;2022-11-04T00:53:07;3.30;;;3.00;;
14858;SDS011;7521;51.700;6.874;2022-11-04T00:56:12;5.40;;;3.10;;
14858;SDS011;7521;51.700;6.874;2022-11-04T00:59:17;4.97;;;3.35;;
14858;SDS011;7521;51.700;6.874;2022-11-04T01:02:22;4.80;;;3.45;;
14858;SDS011;7521;51.700;6.874;2022-11-04T01:05:28;4.70;;;3.47;;
14858;SDS011;7521;51.700;6.874;2022-11-04T01:08:33;4.35;;;2.80;;
14858;SDS011;7521;51.700;6.874;2022-11-04T01:11:38;4.50;;;3.10;;
14858;SDS011;7521;51.700;6.874;2022-11-04T01:14:43;4.00;;;3.10;;
14858;SDS011;7521;51.700;6.874;2022-11-04T01:17:49;5.13;;;3.33;;
14858;SDS011;7521;51.700;6.874;2022-11-04T01:20:54;3.30;;;3.00;;
14858;SDS011;7521;51.700;6.874;2022-11-04T01:24:04;3.40;;;3.10;;
14858;SDS011;7521;51.700;6.874;2022-11-04T01:27:09;3.00;;;2.53;;
14858;SDS011;7521;51.700;6.874;2022-11-04T01:30:14;3.90;;;3.10;;
14858;SDS011;7521;51.700;6.874;2022-11-04T01:33:19;3.37;;;2.80;;
14858;SDS011;7521;51.700;6.874;2022-11-04T01:36:25;4.65;;;3.65;;
14858;SDS011;7521;51.700;6.874;2022-11-04T01:39:31;5.17;;;3.80;;
14858;SDS011;7521;51.700;6.874;2022-11-04T01:42:36;4.38;;;3.90;;
14858;SDS011;7521;51.700;6.874;2022-11-04T01:45:45;5.28;;;4.68;;
14858;SDS011;7521;51.700;6.874;2022-11-04T01:48:52;6.00;;;5.07;;
14858;SDS011;7521;51.700;6.874;2022-11-04T01:52:02;7.00;;;5.57;;
14858;SDS011;7521;51.700;6.874;2022-11-04T01:55:13;8.17;;;5.73;;
14858;SDS011;7521;51.700;6.874;2022-11-04T01:58:20;6.83;;;6.20;;
14858;SDS011;7521;51.700;6.874;2022-11-04T02:01:27;7.80;;;6.00;;
14858;SDS011;7521;51.700;6.874;2022-11-04T02:04:32;6.37;;;5.77;;
14858;SDS011;7521;51.700;6.874;2022-11-04T02:07:37;8.13;;;6.50;;
14858;SDS011;7521;51.700;6.874;2022-11-04T02:10:49;6.10;;;5.50;;
14858;SDS011;7521;51.700;6.874;2022-11-04T02:13:56;8.23;;;6.13;;
14858;SDS011;7521;51.700;6.874;2022-11-04T02:23:48;8.87;;;5.07;;
14858;SDS011;7521;51.700;6.874;2022-11-04T02:40:11;7.67;;;4.57;;
14858;SDS011;7521;51.700;6.874;2022-11-04T02:43:21;6.73;;;4.00;;
14858;SDS011;7521;51.700;6.874;2022-11-04T02:49:37;7.57;;;3.90;;
14858;SDS011;7521;51.700;6.874;2022-11-04T02:52:52;5.63;;;3.90;;
14858;SDS011;7521;51.700;6.874;2022-11-04T02:55:59;8.83;;;3.97;;
14858;SDS011;7521;51.700;6.874;2022-11-04T02:59:08;7.63;;;3.67;;
14858;SDS011;7521;51.700;6.874;2022-11-04T03:02:17;5.37;;;3.60;;
14858;SDS011;7521;51.700;6.874;2022-11-04T03:05:27;6.70;;;3.83;;
14858;SDS011;7521;51.700;6.874;2022-11-04T03:08:35;5.23;;;3.27;;
14858;SDS011;7521;51.700;6.874;2022-11-04T03:11:43;6.17;;;3.60;;
14858;SDS011;7521;51.700;6.874;2022-11-04T03:14:51;5.90;;;3.07;;
14858;SDS011;7521;51.700;6.874;2022-11-04T03:21:21;6.13;;;3.23;;
14858;SDS011;7521;51.700;6.874;2022-11-04T03:24:28;7.07;;;3.30;;
14858;SDS011;7521;51.700;6.874;2022-11-04T03:27:47;8.03;;;3.60;;
14858;SDS011;7521;51.700;6.874;2022-11-04T03:30:54;6.37;;;2.90;;
14858;SDS011;7521;51.700;6.874;2022-11-04T03:34:01;7.80;;;3.27;;
14858;SDS011;7521;51.700;6.874;2022-11-04T03:37:06;4.13;;;2.33;;
14858;SDS011;7521;51.700;6.874;2022-11-04T03:40:11;8.10;;;2.87;;
14858;SDS011;7521;51.700;6.874;2022-11-04T03:43:19;6.60;;;3.30;;
14858;SDS011;7521;51.700;6.874;2022-11-04T03:46:25;10.03;;;3.27;;
14858;SDS011;7521;51.700;6.874;2022-11-04T03:49:30;4.72;;;2.75;;
14858;SDS011;7521;51.700;6.874;2022-11-04T03:52:35;6.83;;;3.07;;
14858;SDS011;7521;51.700;6.874;2022-11-04T04:02:13;5.10;;;2.43;;
14858;SDS011;7521;51.700;6.874;2022-11-04T04:05:22;5.93;;;2.50;;
14858;SDS011;7521;51.700;6.874;2022-11-04T04:08:43;6.07;;;2.50;;
14858;SDS011;7521;51.700;6.874;2022-11-04T04:11:54;7.43;;;2.67;;
14858;SDS011;7521;51.700;6.874;2022-11-04T04:15:05;5.53;;;2.57;;
14858;SDS011;7521;51.700;6.874;2022-11-04T04:18:12;9.33;;;2.57;;
14858;SDS011;7521;51.700;6.874;2022-11-04T04:21:19;5.67;;;2.33;;
14858;SDS011;7521;51.700;6.874;2022-11-04T04:24:25;4.97;;;2.10;;
14858;SDS011;7521;51.700;6.874;2022-11-04T04:27:51;6.77;;;2.40;;
14858;SDS011;7521;51.700;6.874;2022-11-04T04:30:57;6.70;;;2.60;;
14858;SDS011;7521;51.700;6.874;2022-11-04T04:34:02;9.27;;;2.83;;
14858;SDS011;7521;51.700;6.874;2022-11-04T04:37:16;5.57;;;2.30;;
14858;SDS011;7521;51.700;6.874;2022-11-04T04:40:23;6.47;;;2.73;;
14858;SDS011;7521;51.700;6.874;2022-11-04T04:43:49;7.83;;;2.63;;
14858;SDS011;7521;51.700;6.874;2022-11-04T04:47:14;5.57;;;2.23;;
14858;SDS011;7521;51.700;6.874;2022-11-04T04:50:25;11.63;;;2.53;;
14858;SDS011;7521;51.700;6.874;2022-11-04T04:53:31;5.30;;;2.70;;
14858;SDS011;7521;51.700;6.874;2022-11-04T04:56:36;6.53;;;2.53;;
14858;SDS011;7521;51.700;6.874;2022-11-04T04:59:42;6.20;;;2.67;;
14858;SDS011;7521;51.700;6.874;2022-11-04T05:02:47;6.32;;;2.80;;
14858;SDS011;7521;51.700;6.874;2022-11-04T05:05:52;5.20;;;2.00;;
14858;SDS011;7521;51.700;6.874;2022-11-04T05:08:57;8.53;;;3.00;;
14858;SDS011;7521;51.700;6.874;2022-11-04T05:12:02;6.72;;;2.72;;
14858;SDS011;7521;51.700;6.874;2022-11-04T05:15:08;13.27;;;2.70;;
14858;SDS011;7521;51.700;6.874;2022-11-04T05:18:13;9.47;;;3.33;;
14858;SDS011;7521;51.700;6.874;2022-11-04T05:21:18;5.43;;;2.53;;
14858;SDS011;7521;51.700;6.874;2022-11-04T05:24:24;8.07;;;2.65;;
14858;SDS011;7521;51.700;6.874;2022-11-04T05:27:29;9.00;;;2.43;;
14858;SDS011;7521;51.700;6.874;2022-11-04T05:30:34;11.33;;;2.70;;
14858;SDS011;7521;51.700;6.874;2022-11-04T05:33:39;6.57;;;2.70;;
14858;SDS011;7521;51.700;6.874;2022-11-04T05:36:44;7.95;;;2.55;;
14858;SDS011;7521;51.700;6.874;2022-11-04T05:39:50;18.38;;;3.38;;
14858;SDS011;7521;51.700;6.874;2022-11-04T05:42:56;8.13;;;2.60;;
14858;SDS011;7521;51.700;6.874;2022-11-04T05:46:01;9.10;;;2.37;;
14858;SDS011;7521;51.700;6.874;2022-11-04T05:49:07;7.93;;;3.10;;
14858;SDS011;7521;51.700;6.874;2022-11-04T05:52:12;9.30;;;2.60;;
14858;SDS011;7521;51.700;6.874;2022-11-04T05:55:17;10.02;;;2.70;;
14858;SDS011;7521;51.700;6.874;2022-11-04T05:58:23;13.13;;;3.15;;
14858;SDS011;7521;51.700;6.874;2022-11-04T06:01:32;7.50;;;2.45;;
14858;SDS011;7521;51.700;6.874;2022-11-04T06:04:37;8.70;;;3.07;;
14858;SDS011;7521;51.700;6.874;2022-11-04T06:07:42;10.20;;;4.37;;
14858;SDS011;7521;51.700;6.874;2022-11-04T06:10:47;9.18;;;4.22;;
14858;SDS011;7521;51.700;6.874;2022-11-04T06:13:53;8.85;;;3.10;;
14858;SDS011;7521;51.700;6.874;2022-11-04T06:16:58;8.90;;;2.73;;
14858;SDS011;7521;51.700;6.874;2022-11-04T06:20:04;7.30;;;2.30;;
14858;SDS011;7521;51.700;6.874;2022-11-04T06:23:10;6.07;;;2.23;;
14858;SDS011;7521;51.700;6.874;2022-11-04T06:26:15;8.13;;;2.38;;
14858;SDS011;7521;51.700;6.874;2022-11-04T06:29:21;6.97;;;2.00;;
14858;SDS011;7521;51.700;6.874;2022-11-04T06:32:26;7.23;;;2.03;;
14858;SDS011;7521;51.700;6.874;2022-11-04T06:35:31;4.87;;;2.03;;
14858;SDS011;7521;51.700;6.874;2022-11-04T06:38:36;6.97;;;2.65;;
14858;SDS011;7521;51.700;6.874;2022-11-04T06:41:42;6.87;;;2.60;;
14858;SDS011;7521;51.700;6.874;2022-11-04T06:44:47;5.03;;;2.08;;
14858;SDS011;7521;51.700;6.874;2022-11-04T06:47:52;7.57;;;2.33;;
14858;SDS011;7521;51.700;6.874;2022-11-04T06:50:57;5.75;;;2.20;;
14858;SDS011;7521;51.700;6.874;2022-11-04T06:54:03;8.13;;;2.43;;
14858;SDS011;7521;51.700;6.874;2022-11-04T06:57:09;5.30;;;2.20;;
14858;SDS011;7521;51.700;6.874;2022-11-04T07:00:15;5.03;;;2.40;;
14858;SDS011;7521;51.700;6.874;2022-11-04T07:03:20;6.80;;;2.40;;
14858;SDS011;7521;51.700;6.874;2022-11-04T07:06:26;7.97;;;2.55;;
14858;SDS011;7521;51.700;6.874;2022-11-04T07:09:33;10.63;;;3.30;;
14858;SDS011;7521;51.700;6.874;2022-11-04T07:12:39;9.47;;;2.77;;
14858;SDS011;7521;51.700;6.874;2022-11-04T07:15:44;7.32;;;2.67;;
14858;SDS011;7521;51.700;6.874;2022-11-04T07:18:49;9.80;;;2.28;;
14858;SDS011;7521;51.700;6.874;2022-11-04T07:21:56;9.23;;;2.43;;
14858;SDS011;7521;51.700;6.874;2022-11-04T07:25:01;3.40;;;1.90;;
14858;SDS011;7521;51.700;6.874;2022-11-04T07:28:06;9.23;;;2.73;;
14858;SDS011;7521;51.700;6.874;2022-11-04T07:31:12;7.07;;;2.40;;
14858;SDS011;7521;51.700;6.874;2022-11-04T07:34:17;9.57;;;2.03;;
14858;SDS011;7521;51.700;6.874;2022-11-04T07:37:23;8.45;;;2.00;;
14858;SDS011;7521;51.700;6.874;2022-11-04T07:40:28;7.28;;;2.53;;
14858;SDS011;7521;51.700;6.874;2022-11-04T07:43:33;8.10;;;2.43;;
14858;SDS011;7521;51.700;6.874;2022-11-04T07:46:39;7.93;;;2.47;;
14858;SDS011;7521;51.700;6.874;2022-11-04T07:49:45;6.47;;;2.30;;
14858;SDS011;7521;51.700;6.874;2022-11-04T07:52:50;9.55;;;2.65;;
14858;SDS011;7521;51.700;6.874;2022-11-04T07:55:55;15.30;;;2.50;;
14858;SDS011;7521;51.700;6.874;2022-11-04T07:59:03;7.27;;;2.07;;
14858;SDS011;7521;51.700;6.874;2022-11-04T08:02:12;8.93;;;2.20;;
14858;SDS011;7521;51.700;6.874;2022-11-04T08:05:17;8.70;;;2.87;;
14858;SDS011;7521;51.700;6.874;2022-11-04T08:08:22;6.93;;;2.30;;
14858;SDS011;7521;51.700;6.874;2022-11-04T08:11:28;7.17;;;2.47;;
14858;SDS011;7521;51.700;6.874;2022-11-04T08:14:33;9.17;;;2.50;;
14858;SDS011;7521;51.700;6.874;2022-11-04T08:17:38;8.93;;;2.53;;
14858;SDS011;7521;51.700;6.874;2022-11-04T08:20:47;6.50;;;1.97;;
14858;SDS011;7521;51.700;6.874;2022-11-04T08:23:54;12.43;;;3.57;;
14858;SDS011;7521;51.700;6.874;2022-11-04T08:26:59;13.73;;;3.17;;
14858;SDS011;7521;51.700;6.874;2022-11-04T08:30:05;6.83;;;2.87;;
14858;SDS011;7521;51.700;6.874;2022-11-04T08:33:10;11.77;;;3.17;;
14858;SDS011;7521;51.700;6.874;2022-11-04T08:36:17;15.38;;;5.15;;
14858;SDS011;7521;51.700;6.874;2022-11-04T08:39:22;11.63;;;3.30;;
14858;SDS011;7521;51.700;6.874;2022-11-04T08:42:28;13.20;;;3.63;;
14858;SDS011;7521;51.700;6.874;2022-11-04T08:45:37;17.00;;;3.67;;
14858;SDS011;7521;51.700;6.874;2022-11-04T08:48:43;11.00;;;3.57;;
14858;SDS011;7521;51.700;6.874;2022-11-04T08:51:48;10.10;;;2.80;;
14858;SDS011;7521;51.700;6.874;2022-11-04T08:55:00;10.47;;;3.20;;
14858;SDS011;7521;51.700;6.874;2022-11-04T08:58:05;11.87;;;3.43;;
14858;SDS011;7521;51.700;6.874;2022-11-04T09:01:10;9.23;;;3.50;;
14858;SDS011;7521;51.700;6.874;2022-11-04T09:04:16;13.93;;;3.03;;
14858;SDS011;7521;51.700;6.874;2022-11-04T09:07:23;34.63;;;9.70;;
14858;SDS011;7521;51.700;6.874;2022-11-04T09:10:28;8.88;;;3.22;;
14858;SDS011;7521;51.700;6.874;2022-11-04T09:13:34;10.23;;;3.43;;
14858;SDS011;7521;51.700;6.874;2022-11-04T09:16:39;7.93;;;2.87;;
14858;SDS011;7521;51.700;6.874;2022-11-04T09:19:45;12.07;;;3.00;;
14858;SDS011;7521;51.700;6.874;2022-11-04T09:22:50;9.43;;;2.90;;
14858;SDS011;7521;51.700;6.874;2022-11-04T09:25:57;9.90;;;3.50;;
14858;SDS011;7521;51.700;6.874;2022-11-04T09:29:03;8.73;;;2.93;;
14858;SDS011;7521;51.700;6.874;2022-11-04T09:32:10;12.40;;;3.17;;
14858;SDS011;7521;51.700;6.874;2022-11-04T09:35:15;9.60;;;2.80;;
14858;SDS011;7521;51.700;6.874;2022-11-04T09:38:22;9.43;;;3.37;;
14858;SDS011;7521;51.700;6.874;2022-11-04T09:41:49;7.53;;;2.73;;
14858;SDS011;7521;51.700;6.874;2022-11-04T09:44:59;10.20;;;2.93;;
14858;SDS011;7521;51.700;6.874;2022-11-04T09:48:07;9.13;;;3.00;;
14858;SDS011;7521;51.700;6.874;2022-11-04T09:51:18;11.57;;;2.80;;
14858;SDS011;7521;51.700;6.874;2022-11-04T09:54:26;8.57;;;2.53;;
14858;SDS011;7521;51.700;6.874;2022-11-04T09:57:36;13.43;;;2.77;;
14858;SDS011;7521;51.700;6.874;2022-11-04T10:00:42;7.67;;;2.57;;
14858;SDS011;7521;51.700;6.874;2022-11-04T10:19:42;8.63;;;2.93;;
14858;SDS011;7521;51.700;6.874;2022-11-04T10:29:14;7.47;;;2.80;;
14858;SDS011;7521;51.700;6.874;2022-11-04T10:35:51;11.60;;;4.00;;
14858;SDS011;7521;51.700;6.874;2022-11-04T10:38:57;10.03;;;3.70;;
14858;SDS011;7521;51.700;6.874;2022-11-04T10:42:03;9.40;;;3.40;;
14858;SDS011;7521;51.700;6.874;2022-11-04T10:45:09;9.47;;;3.43;;
14858;SDS011;7521;51.700;6.874;2022-11-04T10:48:19;11.50;;;3.63;;
14858;SDS011;7521;51.700;6.874;2022-11-04T10:51:26;9.87;;;3.70;;
14858;SDS011;7521;51.700;6.874;2022-11-04T10:54:35;9.43;;;3.70;;
14858;SDS011;7521;51.700;6.874;2022-11-04T10:57:42;10.53;;;3.83;;
14858;SDS011;7521;51.700;6.874;2022-11-04T11:00:47;10.17;;;3.30;;
14858;SDS011;7521;51.700;6.874;2022-11-04T11:03:53;8.90;;;2.80;;
14858;SDS011;7521;51.700;6.874;2022-11-04T11:06:59;11.50;;;3.33;;
14858;SDS011;7521;51.700;6.874;2022-11-04T11:10:14;7.40;;;3.30;;
14858;SDS011;7521;51.700;6.874;2022-11-04T11:13:23;8.30;;;2.90;;
14858;SDS011;7521;51.700;6.874;2022-11-04T11:16:30;11.73;;;2.93;;
14858;SDS011;7521;51.700;6.874;2022-11-04T11:19:43;7.00;;;2.80;;
14858;SDS011;7521;51.700;6.874;2022-11-04T11:22:48;12.80;;;2.90;;
14858;SDS011;7521;51.700;6.874;2022-11-04T11:25:58;7.23;;;2.70;;
14858;SDS011;7521;51.700;6.874;2022-11-04T11:29:03;11.77;;;2.43;;
14858;SDS011;7521;51.700;6.874;2022-11-04T11:32:20;6.27;;;1.93;;
14858;SDS011;7521;51.700;6.874;2022-11-04T11:35:28;10.13;;;2.87;;
14858;SDS011;7521;51.700;6.874;2022-11-04T11:38:35;11.57;;;2.80;;
14858;SDS011;7521;51.700;6.874;2022-11-04T11:41:50;9.20;;;2.60;;
14858;SDS011;7521;51.700;6.874;2022-11-04T11:44:56;5.93;;;2.40;;
14858;SDS011;7521;51.700;6.874;2022-11-04T11:48:09;9.80;;;3.17;;
14858;SDS011;7521;51.700;6.874;2022-11-04T11:51:31;12.43;;;3.17;;
14858;SDS011;7521;51.700;6.874;2022-11-04T11:54:36;11.90;;;3.00;;
14858;SDS011;7521;51.700;6.874;2022-11-04T11:57:46;9.00;;;2.67;;
14858;SDS011;7521;51.700;6.874;2022-11-04T12:01:03;8.87;;;2.97;;
14858;SDS011;7521;51.700;6.874;2022-11-04T12:04:10;11.77;;;2.87;;
14858;SDS011;7521;51.700;6.874;2022-11-04T12:07:21;8.83;;;2.97;;
14858;SDS011;7521;51.700;6.874;2022-11-04T12:13:38;17.23;;;3.60;;
14858;SDS011;7521;51.700;6.874;2022-11-04T12:17:08;11.90;;;2.97;;
14858;SDS011;7521;51.700;6.874;2022-11-04T12:20:20;12.97;;;3.20;;
14858;SDS011;7521;51.700;6.874;2022-11-04T12:46:10;12.73;;;3.63;;
14858;SDS011;7521;51.700;6.874;2022-11-04T12:59:15;13.50;;;2.92;;
14858;SDS011;7521;51.700;6.874;2022-11-04T13:02:25;9.93;;;3.20;;
14858;SDS011;7521;51.700;6.874;2022-11-04T13:05:35;9.40;;;2.57;;
14858;SDS011;7521;51.700;6.874;2022-11-04T13:08:43;10.13;;;3.50;;
14858;SDS011;7521;51.700;6.874;2022-11-04T13:11:54;17.30;;;9.57;;
14858;SDS011;7521;51.700;6.874;2022-11-04T13:15:04;8.47;;;3.90;;
14858;SDS011;7521;51.700;6.874;2022-11-04T13:18:13;9.63;;;2.80;;
14858;SDS011;7521;51.700;6.874;2022-11-04T13:21:21;12.40;;;2.80;;
14858;SDS011;7521;51.700;6.874;2022-11-04T13:24:28;7.30;;;2.40;;
14858;SDS011;7521;51.700;6.874;2022-11-04T13:27:35;8.53;;;2.70;;
14858;SDS011;7521;51.700;6.874;2022-11-04T13:30:44;10.30;;;2.53;;
14858;SDS011;7521;51.700;6.874;2022-11-04T13:33:52;10.23;;;2.40;;
14858;SDS011;7521;51.700;6.874;2022-11-04T13:37:07;7.10;;;2.77;;
14858;SDS011;7521;51.700;6.874;2022-11-04T13:40:17;10.83;;;2.93;;
14858;SDS011;7521;51.700;6.874;2022-11-04T13:43:33;9.90;;;2.77;;
14858;SDS011;7521;51.700;6.874;2022-11-04T13:46:45;6.87;;;1.93;;
14858;SDS011;7521;51.700;6.874;2022-11-04T13:49:53;7.97;;;2.83;;
14858;SDS011;7521;51.700;6.874;2022-11-04T13:53:02;12.83;;;5.87;;
14858;SDS011;7521;51.700;6.874;2022-11-04T13:56:08;8.77;;;2.10;;
14858;SDS011;7521;51.700;6.874;2022-11-04T13:59:27;8.93;;;2.27;;
14858;SDS011;7521;51.700;6.874;2022-11-04T14:12:26;10.30;;;2.33;;
14858;SDS011;7521;51.700;6.874;2022-11-04T14:18:55;7.30;;;2.53;;
14858;SDS011;7521;51.700;6.874;2022-11-04T14:22:04;5.40;;;2.50;;
14858;SDS011;7521;51.700;6.874;2022-11-04T14:25:20;9.23;;;2.90;;
14858;SDS011;7521;51.700;6.874;2022-11-04T14:28:27;9.10;;;2.60;;
14858;SDS011;7521;51.700;6.874;2022-11-04T14:31:34;6.93;;;2.40;;
14858;SDS011;7521;51.700;6.874;2022-11-04T14:34:40;7.80;;;2.43;;
14858;SDS011;7521;51.700;6.874;2022-11-04T14:37:49;10.43;;;3.13;;
14858;SDS011;7521;51.700;6.874;2022-11-04T14:41:13;7.77;;;2.80;;
14858;SDS011;7521;51.700;6.874;2022-11-04T14:44:27;12.47;;;3.90;;
14858;SDS011;7521;51.700;6.874;2022-11-04T14:47:33;11.23;;;3.80;;
14858;SDS011;7521;51.700;6.874;2022-11-04T14:50:41;10.63;;;4.20;;
14858;SDS011;7521;51.700;6.874;2022-11-04T14:53:46;11.57;;;4.27;;
14858;SDS011;7521;51.700;6.874;2022-11-04T14:56:51;9.83;;;4.03;;
14858;SDS011;7521;51.700;6.874;2022-11-04T14:59:56;8.57;;;5.20;;
14858;SDS011;7521;51.700;6.874;2022-11-04T15:03:09;14.40;;;5.27;;
14858;SDS011;7521;51.700;6.874;2022-11-04T15:06:22;13.93;;;4.80;;
14858;SDS011;7521;51.700;6.874;2022-11-04T15:12:33;13.80;;;5.53;;
14858;SDS011;7521;51.700;6.874;2022-11-04T15:15:58;10.20;;;5.07;;
14858;SDS011;7521;51.700;6.874;2022-11-04T15:19:06;12.13;;;5.33;;
14858;SDS011;7521;51.700;6.874;2022-11-04T15:22:12;16.43;;;6.07;;
14858;SDS011;7521;51.700;6.874;2022-11-04T15:25:18;13.60;;;6.57;;
14858;SDS011;7521;51.700;6.874;2022-11-04T15:28:24;15.07;;;6.87;;
14858;SDS011;7521;51.700;6.874;2022-11-04T15:31:31;16.43;;;7.23;;
14858;SDS011;7521;51.700;6.874;2022-11-04T15:34:36;16.17;;;7.53;;
14858;SDS011;7521;51.700;6.874;2022-11-04T15:37:42;17.10;;;7.73;;
14858;SDS011;7521;51.700;6.874;2022-11-04T15:40:47;13.23;;;6.93;;
14858;SDS011;7521;51.700;6.874;2022-11-04T15:43:54;18.57;;;7.40;;
14858;SDS011;7521;51.700;6.874;2022-11-04T15:47:00;12.90;;;8.63;;
14858;SDS011;7521;51.700;6.874;2022-11-04T16:03:21;13.63;;;7.90;;
14858;SDS011;7521;51.700;6.874;2022-11-04T16:06:35;18.50;;;7.67;;
14858;SDS011;7521;51.700;6.874;2022-11-04T16:09:45;14.23;;;7.87;;
14858;SDS011;7521;51.700;6.874;2022-11-04T16:16:14;14.90;;;8.20;;
14858;SDS011;7521;51.700;6.874;2022-11-04T16:19:21;21.13;;;14.67;;
14858;SDS011;7521;51.700;6.874;2022-11-04T16:22:29;14.43;;;10.40;;
14858;SDS011;7521;51.700;6.874;2022-11-04T16:25:35;13.57;;;9.10;;
14858;SDS011;7521;51.700;6.874;2022-11-04T16:28:40;14.52;;;8.77;;
14858;SDS011;7521;51.700;6.874;2022-11-04T16:32:02;22.30;;;9.17;;
14858;SDS011;7521;51.700;6.874;2022-11-04T16:35:15;13.73;;;8.13;;
14858;SDS011;7521;51.700;6.874;2022-11-04T16:38:21;18.73;;;9.80;;
14858;SDS011;7521;51.700;6.874;2022-11-04T16:41:27;12.52;;;8.55;;
14858;SDS011;7521;51.700;6.874;2022-11-04T16:44:32;16.07;;;8.40;;
14858;SDS011;7521;51.700;6.874;2022-11-04T16:47:38;12.63;;;8.67;;
14858;SDS011;7521;51.700;6.874;2022-11-04T16:50:43;14.90;;;8.93;;
14858;SDS011;7521;51.700;6.874;2022-11-04T16:53:50;14.57;;;9.33;;
14858;SDS011;7521;51.700;6.874;2022-11-04T16:56:56;12.00;;;8.00;;
14858;SDS011;7521;51.700;6.874;2022-11-04T17:00:03;39.53;;;22.00;;
14858;SDS011;7521;51.700;6.874;2022-11-04T17:03:14;23.97;;;18.70;;
14858;SDS011;7521;51.700;6.874;2022-11-04T17:06:25;21.03;;;13.17;;
14858;SDS011;7521;51.700;6.874;2022-11-04T17:09:30;15.80;;;11.93;;
14858;SDS011;7521;51.700;6.874;2022-11-04T17:12:35;16.77;;;12.73;;
14858;SDS011;7521;51.700;6.874;2022-11-04T17:15:40;19.75;;;13.30;;
14858;SDS011;7521;51.700;6.874;2022-11-04T17:18:45;14.75;;;11.10;;
14858;SDS011;7521;51.700;6.874;2022-11-04T17:21:50;21.40;;;12.65;;
14858;SDS011;7521;51.700;6.874;2022-11-04T17:24:56;23.63;;;15.77;;
14858;SDS011;7521;51.700;6.874;2022-11-04T17:28:01;21.83;;;11.10;;
14858;SDS011;7521;51.700;6.874;2022-11-04T17:31:06;15.68;;;9.13;;
14858;SDS011;7521;51.700;6.874;2022-11-04T17:34:11;12.53;;;8.30;;
14858;SDS011;7521;51.700;6.874;2022-11-04T17:37:17;12.60;;;8.00;;
14858;SDS011;7521;51.700;6.874;2022-11-04T17:40:22;11.95;;;8.27;;
14858;SDS011;7521;51.700;6.874;2022-11-04T17:43:28;14.03;;;9.57;;
14858;SDS011;7521;51.700;6.874;2022-11-04T17:46:52;17.97;;;10.13;;
14858;SDS011;7521;51.700;6.874;2022-11-04T17:49:57;14.77;;;10.07;;
14858;SDS011;7521;51.700;6.874;2022-11-04T17:53:02;14.27;;;10.17;;
14858;SDS011;7521;51.700;6.874;2022-11-04T17:56:14;16.42;;;10.20;;
14858;SDS011;7521;51.700;6.874;2022-11-04T17:59:19;11.93;;;9.03;;
14858;SDS011;7521;51.700;6.874;2022-11-04T18:02:24;14.27;;;9.27;;
14858;SDS011;7521;51.700;6.874;2022-11-04T18:05:29;14.37;;;9.73;;
14858;SDS011;7521;51.700;6.874;2022-11-04T18:08:34;18.13;;;10.73;;
14858;SDS011;7521;51.700;6.874;2022-11-04T18:11:40;17.00;;;10.30;;
14858;SDS011;7521;51.700;6.874;2022-11-04T18:15:04;14.63;;;10.23;;
14858;SDS011;7521;51.700;6.874;2022-11-04T18:18:10;14.80;;;10.60;;
14858;SDS011;7521;51.700;6.874;2022-11-04T18:21:15;12.27;;;9.35;;
14858;SDS011;7521;51.700;6.874;2022-11-04T18:24:20;15.70;;;10.87;;
14858;SDS011;7521;51.700;6.874;2022-11-04T18:27:25;14.27;;;11.10;;
14858;SDS011;7521;51.700;6.874;2022-11-04T18:30:31;15.87;;;11.13;;
14858;SDS011;7521;51.700;6.874;2022-11-04T18:33:36;17.53;;;11.57;;
14858;SDS011;7521;51.700;6.874;2022-11-04T18:36:41;17.93;;;11.70;;
14858;SDS011;7521;51.700;6.874;2022-11-04T18:39:46;17.40;;;11.70;;
14858;SDS011;7521;51.700;6.874;2022-11-04T18:42:52;14.97;;;12.13;;
14858;SDS011;7521;51.700;6.874;2022-11-04T18:45:58;24.40;;;17.80;;
14858;SDS011;7521;51.700;6.874;2022-11-04T18:49:03;24.27;;;15.87;;
14858;SDS011;7521;51.700;6.874;2022-11-04T18:52:08;27.15;;;18.15;;
14858;SDS011;7521;51.700;6.874;2022-11-04T18:55:13;21.23;;;16.83;;
14858;SDS011;7521;51.700;6.874;2022-11-04T18:58:18;21.58;;;17.40;;
14858;SDS011;7521;51.700;6.874;2022-11-04T19:01:28;23.13;;;16.65;;
14858;SDS011;7521;51.700;6.874;2022-11-04T19:04:33;25.90;;;17.00;;
14858;SDS011;7521;51.700;6.874;2022-11-04T19:07:39;21.75;;;17.40;;
14858;SDS011;7521;51.700;6.874;2022-11-04T19:10:45;19.43;;;15.70;;
14858;SDS011;7521;51.700;6.874;2022-11-04T19:13:51;28.83;;;18.30;;
14858;SDS011;7521;51.700;6.874;2022-11-04T19:16:57;22.80;;;16.77;;
14858;SDS011;7521;51.700;6.874;2022-11-04T19:20:03;19.65;;;14.48;;
14858;SDS011;7521;51.700;6.874;2022-11-04T19:23:09;19.47;;;14.07;;
14858;SDS011;7521;51.700;6.874;2022-11-04T19:26:15;21.27;;;15.60;;
14858;SDS011;7521;51.700;6.874;2022-11-04T19:29:20;21.37;;;15.10;;
14858;SDS011;7521;51.700;6.874;2022-11-04T19:32:26;24.53;;;15.50;;
14858;SDS011;7521;51.700;6.874;2022-11-04T19:35:31;20.47;;;14.90;;
14858;SDS011;7521;51.700;6.874;2022-11-04T19:38:36;19.47;;;15.47;;
14858;SDS011;7521;51.700;6.874;2022-11-04T19:41:41;20.47;;;15.40;;
14858;SDS011;7521;51.700;6.874;2022-11-04T19:45:05;23.57;;;17.13;;
14858;SDS011;7521;51.700;6.874;2022-11-04T19:48:11;23.03;;;16.83;;
14858;SDS011;7521;51.700;6.874;2022-11-04T19:51:17;28.80;;;18.10;;
14858;SDS011;7521;51.700;6.874;2022-11-04T19:54:22;23.98;;;16.75;;
14858;SDS011;7521;51.700;6.874;2022-11-04T19:57:27;22.73;;;16.73;;
14858;SDS011;7521;51.700;6.874;2022-11-04T20:00:33;23.97;;;17.10;;
14858;SDS011;7521;51.700;6.874;2022-11-04T20:03:38;25.20;;;16.58;;
14858;SDS011;7521;51.700;6.874;2022-11-04T20:06:43;23.17;;;16.80;;
14858;SDS011;7521;51.700;6.874;2022-11-04T20:09:48;22.13;;;15.93;;
14858;SDS011;7521;51.700;6.874;2022-11-04T20:12:54;20.95;;;16.45;;
14858;SDS011;7521;51.700;6.874;2022-11-04T20:19:22;21.77;;;15.65;;
14858;SDS011;7521;51.700;6.874;2022-11-04T20:22:28;24.13;;;16.40;;
14858;SDS011;7521;51.700;6.874;2022-11-04T20:25:33;24.13;;;17.77;;
14858;SDS011;7521;51.700;6.874;2022-11-04T20:28:38;23.73;;;17.50;;
14858;SDS011;7521;51.700;6.874;2022-11-04T20:31:44;21.63;;;17.53;;
14858;SDS011;7521;51.700;6.874;2022-11-04T20:34:49;28.83;;;19.23;;
14858;SDS011;7521;51.700;6.874;2022-11-04T20:37:54;23.17;;;18.07;;
14858;SDS011;7521;51.700;6.874;2022-11-04T20:41:03;28.17;;;18.80;;
14858;SDS011;7521;51.700;6.874;2022-11-04T20:44:09;24.87;;;17.97;;
14858;SDS011;7521;51.700;6.874;2022-11-04T20:47:15;21.57;;;17.80;;
14858;SDS011;7521;51.700;6.874;2022-11-04T20:50:21;24.97;;;17.93;;
14858;SDS011;7521;51.700;6.874;2022-11-04T20:53:26;28.05;;;19.35;;
14858;SDS011;7521;51.700;6.874;2022-11-04T20:56:34;23.23;;;17.47;;
14858;SDS011;7521;51.700;6.874;2022-11-04T20:59:40;26.53;;;17.33;;
14858;SDS011;7521;51.700;6.874;2022-11-04T21:02:45;21.47;;;17.07;;
14858;SDS011;7521;51.700;6.874;2022-11-04T21:05:50;19.93;;;17.37;;
14858;SDS011;7521;51.700;6.874;2022-11-04T21:08:58;23.23;;;17.98;;